.
WxDataArchive / Data Records for 2013-10-24
2013-10-23 October 2013 2013-10-25

Data Records for Thursday, 24 October 2013

Time	Temp	Chill	HIndex	Humid	Dewpt	 Wind 	HiWind	WindDir	Rain 	Barom 
-----	----	-----	------	-----	-----	------	------	-------	-----	----- 
00:00	37.2	37.2	37.2	78	31.0	0	0	---	0.00	29.999 
00:05	37.2	37.2	37.2	79	31.3	0	0	---	0.00	29.999 
00:10	37.2	37.2	37.2	79	31.3	0	0	---	0.00	29.999 
00:15	37.0	37.0	37.0	79	31.1	0	0	---	0.00	29.996 
00:20	37.0	37.0	37.0	80	31.4	0	1	292	0.00	29.996 
00:25	37.0	37.0	37.0	80	31.4	0	0	---	0.00	29.996 
00:30	37.0	37.0	37.0	80	31.4	0	1	292	0.00	29.997 
00:35	37.0	37.0	37.0	80	31.4	0	1	292	0.00	29.997 
00:40	37.0	37.0	37.0	80	31.4	0	1	292	0.00	29.997 
00:45	37.0	37.0	37.0	79	31.1	0	1	292	0.00	29.996 
00:50	37.0	37.0	37.0	79	31.1	0	0	---	0.00	29.996 
00:55	37.0	37.0	37.0	79	31.1	0	1	292	0.00	29.996 
01:00	37.0	37.0	37.0	79	31.1	0	1	292	0.00	29.994 
01:05	36.9	36.9	36.9	79	31.0	0	1	292	0.00	29.994 
01:10	36.9	36.9	36.9	79	31.0	0	0	---	0.00	29.994 
01:15	36.9	36.9	36.9	79	31.0	0	0	---	0.00	29.993 
01:20	36.8	36.8	36.8	79	30.9	0	0	---	0.00	29.993 
01:25	36.8	36.8	36.8	79	30.9	0	0	---	0.00	29.993 
01:30	36.8	36.8	36.8	80	31.2	0	0	---	0.00	29.992 
01:35	36.6	36.6	36.6	80	31.0	0	0	---	0.00	29.992 
01:40	36.6	36.6	36.6	80	31.0	0	0	---	0.00	29.992 
01:45	36.6	36.6	36.6	81	31.3	0	0	---	0.00	29.993 
01:50	36.5	36.5	36.5	81	31.2	0	0	---	0.00	29.993 
01:55	36.5	36.5	36.5	81	31.2	0	0	---	0.00	29.993 
02:00	36.5	36.5	36.5	81	31.2	0	0	---	0.00	29.993 
02:05	36.3	36.3	36.3	81	31.0	0	0	---	0.00	29.993 
02:10	36.3	36.3	36.3	81	31.0	0	1	292	0.00	29.993 
02:15	36.3	36.3	36.3	81	31.0	0	0	---	0.00	29.991 
02:20	36.3	36.3	36.3	81	31.0	0	1	292	0.00	29.991 
02:25	36.3	36.3	36.3	81	31.0	0	1	292	0.00	29.991 
02:30	36.3	36.3	36.3	80	30.7	0	1	292	0.00	29.991 
02:35	36.3	36.3	36.3	80	30.7	0	1	292	0.00	29.991 
02:40	36.3	36.3	36.3	79	30.4	0	1	292	0.00	29.991 
02:45	36.3	36.3	36.3	78	30.1	0	1	292	0.00	29.990 
02:50	36.5	36.5	36.5	78	30.3	0	2	292	0.00	29.990 
02:55	36.5	36.5	36.5	77	30.0	0	1	292	0.00	29.990 
03:00	36.5	36.5	36.5	77	30.0	0	1	292	0.00	29.988 
03:05	36.5	36.5	36.5	77	30.0	0	1	292	0.00	29.988 
03:10	36.5	36.5	36.5	76	29.7	0	3	292	0.00	29.988 
03:15	36.5	36.5	36.5	76	29.7	0	1	292	0.00	29.993 
03:20	36.5	36.5	36.5	76	29.7	0	1	292	0.00	29.993 
03:25	36.5	36.5	36.5	76	29.7	0	2	292	0.00	29.993 
03:30	36.5	36.5	36.5	76	29.7	0	2	292	0.00	29.993 
03:35	36.5	36.5	36.5	76	29.7	0	1	292	0.00	29.993 
03:40	36.5	36.5	36.5	76	29.7	0	1	292	0.00	29.993 
03:45	36.3	36.3	36.3	76	29.5	0	1	292	0.00	29.996 
03:50	36.3	36.3	36.3	76	29.5	0	2	292	0.00	29.996 
03:55	36.2	36.2	36.2	76	29.4	0	1	292	0.00	29.996 
04:00	36.2	36.2	36.2	77	29.7	0	1	292	0.00	29.994 
04:05	36.0	36.0	36.0	77	29.5	1	3	292	0.00	29.994 
04:10	36.0	36.0	36.0	77	29.5	0	2	292	0.00	29.994 
04:15	35.9	35.9	35.9	77	29.4	0	2	292	0.00	29.991 
04:20	35.8	35.8	35.8	78	29.6	0	2	292	0.00	29.991 
04:25	35.6	35.6	35.6	78	29.4	0	2	292	0.00	29.991 
04:30	35.6	35.6	35.6	78	29.4	0	1	338	0.00	29.991 
04:35	35.5	35.5	35.5	78	29.3	0	3	315	0.00	29.991 
04:40	35.5	35.5	35.5	78	29.3	0	2	315	0.00	29.991 
04:45	35.3	35.3	35.3	78	29.1	0	3	315	0.00	29.992 
04:50	35.3	35.3	35.3	78	29.1	1	3	315	0.00	29.992 
04:55	35.3	35.3	35.3	78	29.1	0	2	270	0.00	29.992 
05:00	35.3	35.3	35.3	78	29.1	0	3	270	0.00	29.994 
05:05	35.2	35.2	35.2	78	29.0	0	3	270	0.00	29.994 
05:10	35.2	35.2	35.2	78	29.0	0	4	292	0.00	29.994 
05:15	35.2	35.2	35.2	78	29.0	0	2	292	0.00	29.997 
05:20	35.2	35.2	35.2	78	29.0	0	2	292	0.00	29.997 
05:25	35.2	35.2	35.2	78	29.0	0	2	292	0.00	29.997 
05:30	35.2	35.2	35.2	78	29.0	0	2	292	0.00	30.000 
05:35	35.0	35.0	35.0	78	28.8	0	2	292	0.00	30.000 
05:40	35.0	35.0	35.0	78	28.8	0	4	292	0.00	30.000 
05:45	34.9	34.9	34.9	78	28.7	0	2	292	0.00	30.004 
05:50	34.9	34.9	34.9	78	28.7	0	1	292	0.00	30.004 
05:55	34.7	34.7	34.7	78	28.6	0	1	292	0.00	30.004 
06:00	34.6	34.6	34.6	79	28.8	0	1	292	0.00	30.004 
06:05	34.4	34.4	34.4	79	28.6	0	2	292	0.00	30.004 
06:10	34.3	34.3	34.3	79	28.5	0	1	292	0.00	30.004 
06:15	34.3	34.3	34.3	79	28.5	0	1	292	0.00	30.013 
06:20	34.1	34.1	34.1	80	28.6	0	1	292	0.00	30.013 
06:25	34.0	34.0	34.0	80	28.5	0	1	292	0.00	30.013 
06:30	33.8	33.8	33.8	80	28.3	0	0	---	0.00	30.016 
06:35	33.8	33.8	33.8	80	28.3	0	1	292	0.00	30.016 
06:40	33.7	33.7	33.7	81	28.5	0	1	292	0.00	30.016 
06:45	33.7	33.7	33.7	81	28.5	0	1	292	0.00	30.019 
06:50	33.5	33.5	33.5	81	28.3	0	1	292	0.00	30.019 
06:55	33.4	33.4	33.4	81	28.2	0	1	292	0.00	30.019 
07:00	33.4	33.4	33.4	81	28.2	0	0	---	0.00	30.028 
07:05	33.2	33.2	33.2	81	28.0	0	1	292	0.00	30.028 
07:10	33.2	33.2	33.2	82	28.3	0	1	292	0.00	30.028 
07:15	33.2	33.2	33.2	82	28.3	0	1	292	0.00	30.030 
07:20	33.4	33.4	33.4	82	28.5	0	1	292	0.00	30.030 
07:25	33.5	33.5	33.5	82	28.6	0	1	292	0.00	30.030 
07:30	33.5	33.5	33.5	82	28.6	0	1	292	0.00	30.030 
07:35	33.7	33.7	33.7	82	28.8	0	2	292	0.00	30.030 
07:40	33.7	33.7	33.7	82	28.8	0	1	292	0.00	30.030 
07:45	33.7	33.7	33.7	82	28.8	0	2	315	0.00	30.031 
07:50	33.8	33.8	33.8	82	28.9	0	1	315	0.00	30.031 
07:55	33.8	33.8	33.8	82	28.9	0	2	315	0.00	30.031 
08:00	33.8	33.8	33.8	82	28.9	0	2	315	0.00	30.033 
08:05	33.8	33.8	33.8	81	28.6	0	1	315	0.00	30.033 
08:10	33.8	33.8	33.8	81	28.6	0	2	315	0.00	30.033 
08:15	33.8	33.8	33.8	82	28.9	0	1	270	0.00	30.034 
08:20	33.8	33.8	33.8	82	28.9	0	1	270	0.00	30.034 
08:25	33.8	33.8	33.8	82	28.9	0	2	270	0.00	30.034 
08:30	33.8	33.8	33.8	82	28.9	0	2	270	0.00	30.043 
08:35	33.8	33.8	33.8	82	28.9	0	3	270	0.00	30.043 
08:40	33.7	33.7	33.7	82	28.8	0	2	270	0.00	30.043 
08:45	33.7	33.7	33.7	82	28.8	0	3	270	0.00	30.047 
08:50	33.8	33.8	33.8	82	28.9	0	1	270	0.00	30.047 
08:55	33.8	33.8	33.8	82	28.9	0	2	270	0.00	30.047 
09:00	33.8	33.8	33.8	82	28.9	0	4	248	0.00	30.050 
09:05	33.8	33.8	33.8	82	28.9	0	3	292	0.00	30.050 
09:10	33.8	33.8	33.8	81	28.6	0	4	292	0.00	30.050 
09:15	33.8	33.8	33.8	82	28.9	0	3	270	0.00	30.058 
09:20	33.8	33.8	33.8	82	28.9	1	3	270	0.00	30.058 
09:25	33.8	33.8	33.8	82	28.9	0	2	270	0.00	30.058 
09:30	33.8	33.8	33.8	82	28.9	1	4	270	0.00	30.062 
09:35	34.1	34.1	34.1	82	29.2	1	3	270	0.00	30.062 
09:40	34.6	34.6	34.6	82	29.7	0	2	270	0.00	30.062 
09:45	35.0	35.0	35.0	81	29.8	1	3	270	0.00	30.064 
09:50	35.6	35.6	35.6	80	30.1	0	2	315	0.00	30.064 
09:55	35.9	35.9	35.9	79	30.0	2	4	270	0.00	30.064 
10:00	36.3	36.3	36.3	78	30.1	1	4	270	0.00	30.066 
10:05	36.6	36.6	36.6	78	30.4	1	4	270	0.00	30.066 
10:10	37.0	37.0	37.0	77	30.5	1	3	270	0.00	30.066 
10:15	37.3	37.3	37.3	76	30.4	2	5	270	0.00	30.066 
10:20	37.6	37.6	37.6	75	30.4	1	4	270	0.00	30.066 
10:25	38.0	38.0	38.0	75	30.8	1	2	270	0.00	30.066 
10:30	38.6	38.6	38.6	75	31.4	1	5	270	0.00	30.067 
10:35	38.6	38.6	38.6	72	30.4	3	5	270	0.00	30.067 
10:40	38.9	38.9	38.9	72	30.7	2	5	270	0.00	30.067 
10:45	39.2	39.2	39.2	71	30.6	2	5	292	0.00	30.072 
10:50	39.2	39.2	39.2	70	30.3	3	5	292	0.00	30.072 
10:55	39.1	39.1	39.1	70	30.2	2	4	292	0.00	30.072 
11:00	39.5	39.5	39.5	71	30.9	2	4	270	0.00	30.076 
11:05	39.5	39.5	39.5	69	30.2	3	6	292	0.00	30.076 
11:10	39.5	39.5	39.5	69	30.2	2	6	292	0.00	30.076 
11:15	39.6	39.6	39.6	69	30.3	1	4	292	0.00	30.078 
11:20	40.1	40.1	40.1	71	31.5	1	3	292	0.00	30.078 
11:25	40.1	40.1	40.1	69	30.8	2	5	270	0.00	30.078 
11:30	40.3	40.3	40.3	70	31.3	1	3	292	0.00	30.081 
11:35	40.6	40.6	40.6	69	31.2	1	4	292	0.00	30.081 
11:40	40.8	40.8	40.8	69	31.4	1	4	292	0.00	30.081 
11:45	41.2	41.2	41.2	68	31.5	1	5	292	0.00	30.079 
11:50	41.5	41.5	41.5	66	31.0	2	5	270	0.00	30.079 
11:55	41.3	41.3	41.3	63	29.7	3	5	292	0.00	30.079 
12:00	41.6	41.6	41.6	64	30.3	2	5	270	0.00	30.083 
12:05	42.1	42.1	42.1	63	30.4	2	4	292	0.00	30.083 
12:10	42.5	42.5	42.5	62	30.4	3	6	338	0.00	30.083 
12:15	42.6	42.6	42.6	60	29.7	2	7	270	0.00	30.082 
12:20	42.5	42.5	42.5	60	29.6	2	7	292	0.00	30.082 
12:25	42.2	42.2	42.2	59	28.9	3	9	270	0.00	30.082 
12:30	41.9	39.5	41.9	59	28.6	4	9	270	0.00	30.088 
12:35	41.9	41.9	41.9	60	29.0	2	5	270	0.00	30.088 
12:40	41.8	41.8	41.8	60	28.9	2	6	315	0.00	30.088 
12:45	42.2	42.2	42.2	61	29.7	1	4	292	0.00	30.088 
12:50	42.9	42.9	42.9	62	30.8	1	4	270	0.00	30.088 
12:55	42.9	42.9	42.9	59	29.6	2	5	270	0.00	30.088 
13:00	42.6	42.6	42.6	59	29.3	2	4	338	0.00	30.087 
13:05	42.3	42.3	42.3	58	28.6	1	4	315	0.00	30.087 
13:10	42.3	42.3	42.3	60	29.4	2	4	270	0.00	30.087 
13:15	42.3	42.3	42.3	61	29.8	2	5	270	0.00	30.088 
13:20	42.9	42.9	42.9	61	30.4	2	6	315	0.00	30.088 
13:25	43.1	43.1	43.1	59	29.8	3	5	270	0.00	30.088 
13:30	43.1	43.1	43.1	60	30.2	2	5	270	0.00	30.087 
13:35	42.9	42.9	42.9	60	30.0	2	5	270	0.00	30.087 
13:40	42.6	42.6	42.6	62	30.5	1	5	292	0.00	30.087 
13:45	42.3	42.3	42.3	62	30.2	3	5	270	0.00	30.090 
13:50	42.6	42.6	42.6	63	30.9	2	4	270	0.00	30.090 
13:55	42.6	42.6	42.6	62	30.5	3	7	270	0.00	30.090 
14:00	42.2	42.2	42.2	64	30.9	2	8	270	0.00	30.091 
14:05	42.1	42.1	42.1	65	31.2	2	4	292	0.00	30.091 
14:10	41.8	41.8	41.8	65	30.9	2	5	270	0.00	30.091 
14:15	41.5	41.5	41.5	65	30.6	1	5	270	0.00	30.090 
14:20	41.3	41.3	41.3	65	30.4	0	3	270	0.00	30.090 
14:25	41.2	41.2	41.2	65	30.3	1	3	270	0.00	30.090 
14:30	41.1	41.1	41.1	65	30.2	1	5	270	0.00	30.092 
14:35	41.1	41.1	41.1	65	30.2	1	3	292	0.00	30.092 
14:40	41.1	41.1	41.1	66	30.6	1	5	292	0.00	30.092 
14:45	40.8	40.8	40.8	67	30.7	1	6	292	0.00	30.096 
14:50	40.8	40.8	40.8	68	31.1	1	4	338	0.00	30.096 
14:55	40.6	40.6	40.6	70	31.6	0	3	315	0.00	30.096 
15:00	40.8	40.8	40.8	70	31.8	1	2	315	0.00	30.100 
15:05	40.8	40.8	40.8	69	31.4	1	3	315	0.00	30.100 
15:10	41.1	41.1	41.1	69	31.7	1	3	338	0.00	30.100 
15:15	41.3	41.3	41.3	68	31.5	1	4	315	0.00	30.105 
15:20	41.6	41.6	41.6	67	31.5	1	4	270	0.00	30.105 
15:25	41.9	41.9	41.9	68	32.1	1	4	315	0.00	30.105 
15:30	42.1	42.1	42.1	67	31.9	1	4	315	0.00	30.104 
15:35	42.1	42.1	42.1	66	31.6	1	4	315	0.00	30.104 
15:40	42.1	42.1	42.1	65	31.2	1	4	270	0.00	30.104 
15:45	41.9	41.9	41.9	65	31.0	1	3	292	0.00	30.108 
15:50	41.9	41.9	41.9	65	31.0	1	4	292	0.00	30.108 
15:55	41.8	41.8	41.8	65	30.9	2	5	270	0.00	30.108 
16:00	41.5	41.5	41.5	68	31.7	3	7	270	0.00	30.115 
16:05	41.1	41.1	41.1	69	31.7	2	5	270	0.00	30.115 
16:10	40.6	40.6	40.6	67	30.5	3	6	270	0.00	30.115 
16:15	40.5	40.5	40.5	67	30.4	3	5	292	0.00	30.122 
16:20	40.3	40.3	40.3	68	30.6	3	5	270	0.00	30.122 
16:25	40.1	40.1	40.1	69	30.8	2	5	292	0.00	30.122 
16:30	40.1	40.1	40.1	68	30.4	2	7	292	0.00	30.127 
16:35	40.1	40.1	40.1	69	30.8	2	5	315	0.00	30.127 
16:40	39.9	39.9	39.9	69	30.6	2	4	292	0.00	30.127 
16:45	40.1	40.1	40.1	71	31.5	1	3	292	0.00	30.132 
16:50	40.2	40.2	40.2	69	30.9	1	4	315	0.00	30.132 
16:55	40.3	40.3	40.3	68	30.6	1	4	248	0.00	30.132 
17:00	40.5	40.5	40.5	68	30.8	1	3	292	0.00	30.134 
17:05	40.6	40.6	40.6	66	30.1	2	3	292	0.00	30.134 
17:10	40.8	40.8	40.8	66	30.3	1	3	270	0.00	30.134 
17:15	40.9	40.9	40.9	65	30.1	0	2	270	0.00	30.137 
17:20	41.2	41.2	41.2	65	30.3	0	2	270	0.00	30.137 
17:25	41.3	41.3	41.3	64	30.1	0	3	270	0.00	30.137 
17:30	41.5	41.5	41.5	63	29.9	2	5	270	0.00	30.144 
17:35	41.2	38.7	41.2	59	28.0	4	9	315	0.00	30.144 
17:40	40.9	40.9	40.9	60	28.1	3	7	270	0.00	30.144 
17:45	40.6	40.6	40.6	62	28.6	3	6	270	0.00	30.150 
17:50	40.2	40.2	40.2	64	29.0	2	5	292	0.00	30.150 
17:55	39.9	39.9	39.9	65	29.1	1	4	270	0.00	30.150 
18:00	39.6	39.6	39.6	67	29.6	1	4	270	0.00	30.155 
18:05	39.5	39.5	39.5	68	29.8	1	4	292	0.00	30.155 
18:10	39.5	39.5	39.5	69	30.2	1	3	292	0.00	30.155 
18:15	39.5	39.5	39.5	68	29.8	3	6	315	0.00	30.162 
18:20	39.2	39.2	39.2	68	29.5	3	7	315	0.00	30.162 
18:25	38.9	36.0	38.9	68	29.3	4	7	292	0.00	30.162 
18:30	38.8	38.8	38.8	69	29.5	3	5	292	0.00	30.173 
18:35	38.6	38.6	38.6	71	30.0	2	5	338	0.00	30.173 
18:40	38.6	38.6	38.6	72	30.4	3	6	292	0.00	30.173 
18:45	38.6	38.6	38.6	72	30.4	1	3	292	0.00	30.175 
18:50	38.6	38.6	38.6	72	30.4	1	4	292	0.00	30.175 
18:55	38.6	38.6	38.6	73	30.7	1	4	0	0.00	30.175 
19:00	38.6	38.6	38.6	73	30.7	2	4	315	0.00	30.184 
19:05	38.6	38.6	38.6	73	30.7	1	4	315	0.00	30.184 
19:10	38.6	38.6	38.6	73	30.7	1	2	270	0.00	30.184 
19:15	38.5	38.5	38.5	73	30.6	1	4	315	0.00	30.188 
19:20	38.3	38.3	38.3	73	30.4	1	3	315	0.00	30.188 
19:25	38.3	38.3	38.3	73	30.4	1	3	315	0.00	30.188 
19:30	38.2	38.2	38.2	74	30.7	1	3	315	0.00	30.190 
19:35	38.0	38.0	38.0	74	30.5	1	4	315	0.00	30.190 
19:40	38.0	38.0	38.0	75	30.8	1	4	315	0.00	30.190 
19:45	38.0	38.0	38.0	75	30.8	2	4	292	0.00	30.197 
19:50	38.0	38.0	38.0	76	31.1	2	4	292	0.00	30.197 
19:55	38.0	38.0	38.0	76	31.1	1	4	270	0.00	30.197 
20:00	38.2	38.2	38.2	75	31.0	1	4	270	0.00	30.203 
20:05	38.2	38.2	38.2	74	30.7	1	4	270	0.00	30.203 
20:10	38.2	38.2	38.2	74	30.7	1	4	338	0.00	30.203 
20:15	38.2	38.2	38.2	73	30.3	1	4	338	0.00	30.205 
20:20	38.0	38.0	38.0	73	30.1	0	2	270	0.00	30.205 
20:25	38.0	38.0	38.0	73	30.1	0	3	270	0.00	30.205 
20:30	37.9	37.9	37.9	74	30.4	0	3	270	0.00	30.207 
20:35	37.9	37.9	37.9	74	30.4	0	3	270	0.00	30.207 
20:40	37.8	37.8	37.8	74	30.3	1	3	270	0.00	30.207 
20:45	37.8	37.8	37.8	75	30.6	0	3	270	0.00	30.212 
20:50	37.8	37.8	37.8	75	30.6	0	2	270	0.00	30.212 
20:55	37.6	37.6	37.6	75	30.4	0	2	270	0.00	30.212 
21:00	37.6	37.6	37.6	76	30.7	0	3	270	0.00	30.212 
21:05	37.6	37.6	37.6	76	30.7	0	1	270	0.00	30.212 
21:10	37.6	37.6	37.6	76	30.7	0	1	270	0.00	30.212 
21:15	37.6	37.6	37.6	77	31.1	0	1	270	0.00	30.214 
21:20	37.5	37.5	37.5	77	31.0	0	1	270	0.00	30.214 
21:25	37.5	37.5	37.5	77	31.0	0	0	---	0.00	30.214 
21:30	37.5	37.5	37.5	77	31.0	0	0	---	0.00	30.218 
21:35	37.5	37.5	37.5	77	31.0	0	0	---	0.00	30.218 
21:40	37.3	37.3	37.3	77	30.8	0	1	270	0.00	30.218 
21:45	37.3	37.3	37.3	77	30.8	0	0	---	0.00	30.223 
21:50	37.2	37.2	37.2	77	30.7	0	0	---	0.00	30.223 
21:55	37.0	37.0	37.0	78	30.8	0	0	---	0.00	30.223 
22:00	37.0	37.0	37.0	79	31.1	0	0	---	0.00	30.227 
22:05	36.9	36.9	36.9	79	31.0	0	0	---	0.00	30.227 
22:10	36.8	36.8	36.8	80	31.2	0	0	---	0.00	30.227 
22:15	36.8	36.8	36.8	80	31.2	0	0	---	0.00	30.228 
22:20	36.6	36.6	36.6	81	31.3	0	0	---	0.00	30.228 
22:25	36.5	36.5	36.5	81	31.2	0	0	---	0.00	30.228 
22:30	36.5	36.5	36.5	81	31.2	0	0	---	0.00	30.232 
22:35	36.5	36.5	36.5	82	31.5	0	0	---	0.00	30.232 
22:40	36.3	36.3	36.3	82	31.3	0	0	---	0.00	30.232 
22:45	36.3	36.3	36.3	82	31.3	0	0	---	0.00	30.233 
22:50	36.3	36.3	36.3	83	31.6	0	0	---	0.00	30.233 
22:55	36.3	36.3	36.3	83	31.6	0	1	270	0.00	30.233 
23:00	36.3	36.3	36.3	83	31.6	0	1	270	0.00	30.234 
23:05	36.3	36.3	36.3	83	31.6	0	1	270	0.00	30.234 
23:10	36.3	36.3	36.3	83	31.6	0	1	270	0.00	30.234 
23:15	36.3	36.3	36.3	83	31.6	0	1	270	0.00	30.236 
23:20	36.3	36.3	36.3	82	31.3	0	2	270	0.00	30.236 
23:25	36.3	36.3	36.3	82	31.3	0	1	270	0.00	30.236 
23:30	36.2	36.2	36.2	82	31.2	0	1	270	0.00	30.237 
23:35	36.2	36.2	36.2	83	31.5	0	1	270	0.00	30.237 
23:40	36.0	36.0	36.0	83	31.3	0	1	270	0.00	30.237 
23:45	36.0	36.0	36.0	82	31.0	0	1	270	0.00	30.237 
23:50	35.9	35.9	35.9	82	31.0	0	1	270	0.00	30.237 
23:55	35.8	35.8	35.8	82	30.9	0	1	270	0.00	30.237 

CoCoRaHS
IN-AL-39
A2 Web Hosting
Creative Commons License
GoDaddy
search engine by freefind advanced

loaded 2018-11-17 19:10:05 • last modified 2010-11-18 10:43:29
Privacy PolicyDisclaimer
• wx.awcolley.com is powered by PmWiki v.2002016 •
• all content (unless otherwise noted) © 2018 A W Colley